Terminal Aerodrome Forecast
Issued by NWS

Home | Current Version | Previous Version | Text Only | Print | Product List | Glossary On
Versions: 1 2 3 4 5 6 7 8 9 10 11 12
961
FTUS42 TJSJ 061132
TAFISX
TAF
TISX 061132Z 0612/0712 VRB05KT P6SM VCSH FEW030 SCT040
     FM061400 14012KT P6SM FEW025 SCT050
     FM062300 10008KT P6SM FEW030=

USA.gov is the U.S. government's official web portal to all federal, state and local government web resources and services.